Time;durP1;ratioP1;P1;durP2;ratioP2;P2;SDS_P1;SDS_P2;PMS_P1;PMS_P2;Temp;Humidity;BMP_temperature;BMP_pressure;BME280_temperature;BME280_humidity;BME280_pressure;Samples;Min_cycle;Max_cycle;Signal;HPM_P1;HPM_P2
2021/12/09 00:00:54;;;;;;;6.53;3.67;;;0.20;99.90;;;;;;5032819;28;20119;-75
2021/12/09 00:03:20;;;;;;;7.35;4.80;;;0.30;99.90;;;;;;5054211;28;20456;-75
2021/12/09 00:05:46;;;;;;;8.73;5.20;;;0.30;99.90;;;;;;5050194;28;20082;-74
2021/12/09 00:08:13;;;;;;;7.45;4.80;;;0.20;99.90;;;;;;5059229;28;20035;-74
2021/12/09 00:10:40;;;;;;;6.90;4.60;;;0.20;99.90;;;;;;5067426;28;20052;-74
2021/12/09 00:13:06;;;;;;;5.50;3.43;;;0.20;99.90;;;;;;5057880;28;20024;-74
2021/12/09 00:15:33;;;;;;;6.38;4.22;;;0.30;99.90;;;;;;5053746;28;20040;-74
2021/12/09 00:17:59;;;;;;;6.65;4.18;;;0.40;99.90;;;;;;5053821;28;20032;-75
2021/12/09 00:20:25;;;;;;;8.52;4.05;;;0.40;99.90;;;;;;5053922;28;20029;-74
2021/12/09 00:22:50;;;;;;;5.47;3.53;;;0.50;99.90;;;;;;5058400;28;20039;-74
2021/12/09 00:25:16;;;;;;;6.53;4.25;;;0.40;99.90;;;;;;5053638;28;20074;-74
2021/12/09 00:27:43;;;;;;;6.05;3.40;;;0.50;99.90;;;;;;5064147;28;20153;-74
2021/12/09 00:30:11;;;;;;;5.68;3.65;;;0.50;99.90;;;;;;5057733;28;20040;-74
2021/12/09 00:32:39;;;;;;;7.00;3.58;;;0.60;99.90;;;;;;5053503;28;20028;-75
2021/12/09 00:35:05;;;;;;;7.00;3.67;;;0.50;99.90;;;;;;5056754;28;20124;-74
2021/12/09 00:37:41;;;;;;;9.95;4.07;;;0.50;99.90;;;;;;5050451;28;20029;-74
2021/12/09 00:40:08;;;;;;;5.60;3.55;;;0.50;99.90;;;;;;5065707;28;20027;-74
2021/12/09 00:42:35;;;;;;;7.07;3.72;;;0.50;99.90;;;;;;5051986;28;20036;-74
2021/12/09 00:45:01;;;;;;;6.07;3.95;;;0.50;99.90;;;;;;5058518;28;20032;-74
2021/12/09 00:47:26;;;;;;;6.25;3.47;;;0.50;99.90;;;;;;5064711;28;20025;-74
2021/12/09 00:49:56;;;;;;;5.57;3.33;;;0.50;99.90;;;;;;5052589;28;20078;-74
2021/12/09 00:52:26;;;;;;;5.50;3.35;;;0.50;99.90;;;;;;5064944;28;20502;-74
2021/12/09 00:54:54;;;;;;;6.85;3.60;;;0.50;99.90;;;;;;5058310;28;20028;-74
2021/12/09 00:57:20;;;;;;;9.80;3.83;;;0.50;99.90;;;;;;5053530;28;20078;-74
2021/12/09 00:59:46;;;;;;;6.30;3.30;;;0.60;99.90;;;;;;5057722;28;20025;-75
2021/12/09 01:02:12;;;;;;;5.82;3.15;;;0.60;99.90;;;;;;5055245;28;20021;-74
2021/12/09 01:04:39;;;;;;;7.40;3.72;;;0.60;99.90;;;;;;5052800;28;20032;-74
2021/12/09 01:07:06;;;;;;;8.50;5.07;;;0.60;99.90;;;;;;5052599;28;20029;-74
2021/12/09 01:09:32;;;;;;;6.15;3.30;;;0.70;99.90;;;;;;5052593;28;20025;-74
2021/12/09 01:11:58;;;;;;;5.93;3.30;;;0.70;99.90;;;;;;5052718;28;20029;-74
2021/12/09 01:14:23;;;;;;;5.43;3.00;;;0.60;99.90;;;;;;5062720;28;20051;-74
2021/12/09 01:16:49;;;;;;;5.32;3.42;;;0.60;99.90;;;;;;5058850;28;20111;-74
2021/12/09 01:19:15;;;;;;;8.43;4.55;;;0.70;99.90;;;;;;5052075;28;20478;-74
2021/12/09 01:21:41;;;;;;;7.88;4.88;;;0.70;99.90;;;;;;5056644;28;20031;-74
2021/12/09 01:24:07;;;;;;;8.02;4.95;;;0.40;99.90;;;;;;5058649;28;20021;-74
2021/12/09 01:26:33;;;;;;;6.28;3.97;;;0.40;99.90;;;;;;5051309;28;20047;-74
2021/12/09 01:29:04;;;;;;;7.50;4.45;;;0.50;99.90;;;;;;5058357;28;20028;-74
2021/12/09 01:31:35;;;;;;;7.80;4.57;;;0.50;99.90;;;;;;5056882;28;20017;-75
2021/12/09 01:34:03;;;;;;;7.32;4.93;;;0.50;99.90;;;;;;5063906;28;20086;-75
2021/12/09 01:36:34;;;;;;;7.88;4.90;;;0.30;99.90;;;;;;5057847;28;21713;-74
2021/12/09 01:39:02;;;;;;;6.00;3.58;;;0.40;99.90;;;;;;5051946;28;20048;-74
2021/12/09 01:41:27;;;;;;;6.15;3.83;;;0.50;99.90;;;;;;5051269;28;20047;-74
2021/12/09 01:43:54;;;;;;;5.18;2.60;;;0.60;99.90;;;;;;5062077;28;20478;-74
2021/12/09 01:46:20;;;;;;;6.07;3.63;;;0.70;99.90;;;;;;5054496;28;20037;-74
2021/12/09 01:48:48;;;;;;;7.07;3.22;;;0.80;99.90;;;;;;5052166;28;20029;-74
2021/12/09 01:51:15;;;;;;;5.70;2.97;;;0.80;99.90;;;;;;5052417;28;20454;-74
2021/12/09 01:53:41;;;;;;;6.05;3.67;;;0.70;99.90;;;;;;5069390;28;20040;-74
2021/12/09 01:56:11;;;;;;;5.70;3.42;;;0.70;99.90;;;;;;5060345;28;20028;-74
2021/12/09 01:58:37;;;;;;;6.10;3.92;;;0.60;99.90;;;;;;5066942;28;20475;-74
2021/12/09 02:01:04;;;;;;;6.70;3.53;;;0.50;99.90;;;;;;5067302;28;20360;-74
2021/12/09 02:03:30;;;;;;;6.47;3.42;;;0.50;99.90;;;;;;5052248;28;20380;-74
2021/12/09 02:05:56;;;;;;;6.00;3.90;;;0.60;99.90;;;;;;5056204;28;20081;-74
2021/12/09 02:08:23;;;;;;;6.55;3.50;;;0.50;99.90;;;;;;5065198;28;20387;-74
2021/12/09 02:10:50;;;;;;;6.20;3.90;;;0.50;99.90;;;;;;5053041;28;20029;-74
2021/12/09 02:13:18;;;;;;;6.15;3.55;;;0.50;99.90;;;;;;5059997;28;20036;-75
2021/12/09 02:15:44;;;;;;;6.38;3.65;;;0.50;99.90;;;;;;5060290;28;20103;-74
2021/12/09 02:18:12;;;;;;;6.25;3.47;;;0.50;99.90;;;;;;5068804;28;20549;-74
2021/12/09 02:20:40;;;;;;;5.20;3.00;;;0.70;99.90;;;;;;5054673;28;20040;-74
2021/12/09 02:23:10;;;;;;;7.70;3.50;;;0.70;99.90;;;;;;5050760;28;21398;-74
2021/12/09 02:25:38;;;;;;;5.65;3.17;;;0.70;99.90;;;;;;5052258;28;20502;-74
2021/12/09 02:28:04;;;;;;;6.35;2.50;;;0.90;99.90;;;;;;5054683;28;20454;-74
2021/12/09 02:30:31;;;;;;;5.65;2.70;;;0.90;99.90;;;;;;5054458;28;20029;-74
2021/12/09 02:32:56;;;;;;;4.93;2.65;;;0.80;99.90;;;;;;5060530;28;20029;-74
2021/12/09 02:35:22;;;;;;;5.20;2.80;;;0.90;99.90;;;;;;5055546;28;20736;-74
2021/12/09 02:37:49;;;;;;;4.53;2.33;;;0.90;99.90;;;;;;5049602;28;20502;-74
2021/12/09 02:40:16;;;;;;;4.53;2.50;;;0.80;99.90;;;;;;5055028;28;20017;-74
2021/12/09 02:42:42;;;;;;;4.68;2.70;;;0.90;99.90;;;;;;5061036;28;20024;-74
2021/12/09 02:45:11;;;;;;;5.03;2.95;;;1.00;99.90;;;;;;5049078;28;20095;-74
2021/12/09 02:47:37;;;;;;;6.40;3.58;;;1.10;99.90;;;;;;5058177;28;20386;-74
2021/12/09 02:50:05;;;;;;;5.78;3.00;;;1.10;99.90;;;;;;5050704;28;20104;-74
2021/12/09 02:52:31;;;;;;;4.93;2.83;;;1.00;99.90;;;;;;5050397;28;20083;-74
2021/12/09 02:54:58;;;;;;;6.53;3.35;;;0.80;99.90;;;;;;5051207;28;20036;-74
2021/12/09 02:57:24;;;;;;;5.30;2.90;;;0.90;99.90;;;;;;5050716;28;20112;-74
2021/12/09 02:59:50;;;;;;;5.55;3.05;;;0.90;99.90;;;;;;5056816;28;20037;-74
2021/12/09 03:02:19;;;;;;;5.97;3.40;;;0.90;99.90;;;;;;5064175;28;20081;-74
2021/12/09 03:04:51;;;;;;;5.80;3.45;;;0.80;99.90;;;;;;5062043;28;20029;-74
2021/12/09 03:07:24;;;;;;;7.82;3.88;;;0.80;99.90;;;;;;5063873;28;20024;-74
2021/12/09 03:09:54;;;;;;;6.50;3.85;;;0.80;99.90;;;;;;5058847;28;20044;-74
2021/12/09 03:12:25;;;;;;;7.13;3.53;;;0.90;99.90;;;;;;5051638;28;20035;-74
2021/12/09 03:14:51;;;;;;;6.10;3.50;;;0.90;99.90;;;;;;5050650;28;20029;-74
2021/12/09 03:17:18;;;;;;;6.13;3.30;;;0.90;99.90;;;;;;5057407;28;20021;-74
2021/12/09 03:19:45;;;;;;;5.97;3.50;;;0.90;99.90;;;;;;5053737;28;20028;-74
2021/12/09 03:22:12;;;;;;;5.88;3.60;;;0.80;99.90;;;;;;5050194;28;20041;-74
2021/12/09 03:24:38;;;;;;;5.03;2.97;;;0.80;99.90;;;;;;5049829;28;20033;-74
2021/12/09 03:27:04;;;;;;;5.82;3.67;;;0.80;99.90;;;;;;5055543;28;20024;-74
2021/12/09 03:29:31;;;;;;;5.43;3.17;;;0.80;99.90;;;;;;5056555;28;20021;-74
2021/12/09 03:32:00;;;;;;;4.80;3.00;;;0.80;99.90;;;;;;5054411;28;20072;-74
2021/12/09 03:34:29;;;;;;;6.18;2.97;;;0.80;99.90;;;;;;5064605;28;20382;-74
2021/12/09 03:36:57;;;;;;;6.60;3.03;;;0.70;99.90;;;;;;5068977;28;20040;-74
2021/12/09 03:39:28;;;;;;;6.70;3.20;;;0.70;99.90;;;;;;5053266;28;20029;-74
2021/12/09 03:41:56;;;;;;;6.03;3.20;;;0.70;99.90;;;;;;5050794;28;20037;-74
2021/12/09 03:44:22;;;;;;;7.38;3.95;;;0.80;99.90;;;;;;5070448;28;20047;-74
2021/12/09 03:46:52;;;;;;;5.45;3.08;;;0.70;99.90;;;;;;5056948;28;20522;-74
2021/12/09 03:49:18;;;;;;;5.90;3.28;;;0.60;99.90;;;;;;5067503;28;20032;-74
2021/12/09 03:51:44;;;;;;;5.47;3.38;;;0.60;99.90;;;;;;5060247;28;20154;-74
2021/12/09 03:54:11;;;;;;;5.47;3.10;;;0.60;99.90;;;;;;5062728;28;20044;-74
2021/12/09 03:56:38;;;;;;;7.50;3.78;;;0.50;99.90;;;;;;5062447;28;20029;-74
2021/12/09 03:59:06;;;;;;;5.32;2.83;;;0.40;99.90;;;;;;5066627;28;20529;-74
2021/12/09 04:01:33;;;;;;;4.75;2.70;;;0.40;99.90;;;;;;5061889;28;20032;-74
2021/12/09 04:03:59;;;;;;;4.57;2.45;;;0.40;99.90;;;;;;5058908;28;20062;-75
2021/12/09 04:06:25;;;;;;;4.53;2.60;;;0.40;99.90;;;;;;5054727;28;20552;-74
2021/12/09 04:08:50;;;;;;;5.95;2.88;;;0.30;99.90;;;;;;5046935;28;20033;-74
2021/12/09 04:11:17;;;;;;;5.75;3.05;;;0.30;99.90;;;;;;5049334;28;20021;-74
2021/12/09 04:13:43;;;;;;;5.05;2.72;;;0.30;99.90;;;;;;5045040;28;20037;-74
2021/12/09 04:16:09;;;;;;;5.20;2.70;;;0.40;99.90;;;;;;5045086;28;20485;-75
2021/12/09 04:18:38;;;;;;;5.65;2.75;;;0.40;99.90;;;;;;5045768;28;20033;-74
2021/12/09 04:21:04;;;;;;;5.68;3.40;;;0.50;99.90;;;;;;5045824;28;20032;-75
2021/12/09 04:23:31;;;;;;;6.38;3.53;;;0.40;99.90;;;;;;5051408;28;20021;-74
2021/12/09 04:25:58;;;;;;;5.78;3.40;;;0.50;99.90;;;;;;5060727;28;20029;-74
2021/12/09 04:28:24;;;;;;;5.75;3.10;;;0.50;99.90;;;;;;5046716;28;20051;-74
2021/12/09 04:30:49;;;;;;;6.90;3.35;;;0.50;99.90;;;;;;5055377;28;20033;-74
2021/12/09 04:33:15;;;;;;;5.55;3.72;;;0.50;99.90;;;;;;5055651;28;20540;-74
2021/12/09 04:35:41;;;;;;;6.72;3.67;;;0.50;99.90;;;;;;5053399;28;20414;-74
2021/12/09 04:38:07;;;;;;;6.68;4.38;;;0.60;99.90;;;;;;5046340;28;20459;-74
2021/12/09 04:40:33;;;;;;;9.50;5.05;;;0.70;99.90;;;;;;5049093;28;20075;-74
2021/12/09 04:43:00;;;;;;;7.10;4.40;;;0.80;99.90;;;;;;5052158;28;20033;-74
2021/12/09 04:45:27;;;;;;;7.53;4.20;;;0.90;99.90;;;;;;5059854;28;20506;-74
2021/12/09 04:47:53;;;;;;;7.82;4.35;;;0.90;99.90;;;;;;5046563;28;20613;-75
2021/12/09 04:50:18;;;;;;;6.70;3.55;;;1.00;99.90;;;;;;5045527;28;20036;-74
2021/12/09 04:52:44;;;;;;;5.85;3.65;;;0.90;99.90;;;;;;5056269;28;20059;-74
2021/12/09 04:55:11;;;;;;;5.63;3.88;;;0.90;99.90;;;;;;5053785;28;20083;-74
2021/12/09 04:57:38;;;;;;;5.82;3.35;;;0.90;99.90;;;;;;5047289;28;20029;-74
2021/12/09 05:00:08;;;;;;;5.32;3.17;;;0.80;99.90;;;;;;5045411;28;20025;-74
2021/12/09 05:02:56;;;;;;;6.05;3.47;;;0.70;99.90;;;;;;5058464;28;20035;-74
2021/12/09 05:05:19;;;;;;;7.47;4.47;;;0.70;99.90;;;;;;5045654;28;20037;-75
2021/12/09 05:07:46;;;;;;;6.43;3.97;;;0.70;99.90;;;;;;5045219;28;20024;-74
2021/12/09 05:10:12;;;;;;;8.80;3.85;;;0.90;99.90;;;;;;5058214;28;20367;-74
2021/12/09 05:12:38;;;;;;;7.95;4.18;;;0.90;99.90;;;;;;5060334;28;20033;-74
2021/12/09 05:15:04;;;;;;;7.95;4.40;;;0.90;99.90;;;;;;5063317;28;20066;-75
2021/12/09 05:17:30;;;;;;;7.32;3.75;;;0.90;99.90;;;;;;5062238;28;20628;-74
2021/12/09 05:19:55;;;;;;;6.43;3.72;;;0.80;99.90;;;;;;5045292;28;20035;-74
2021/12/09 05:22:21;;;;;;;6.28;3.90;;;0.80;99.90;;;;;;5046199;28;20083;-74
2021/12/09 05:24:49;;;;;;;5.05;2.95;;;0.60;99.90;;;;;;5045151;28;20025;-74
2021/12/09 05:27:17;;;;;;;7.25;3.83;;;0.70;99.90;;;;;;5043857;28;20087;-74
2021/12/09 05:29:44;;;;;;;6.20;3.55;;;0.70;99.90;;;;;;5051136;28;20675;-74
2021/12/09 05:32:12;;;;;;;6.97;4.63;;;0.70;99.90;;;;;;5044572;28;20097;-74
2021/12/09 05:34:48;;;;;;;6.78;3.90;;;0.90;99.90;;;;;;5059437;28;20032;-74
2021/12/09 05:37:19;;;;;;;7.28;3.80;;;1.10;99.90;;;;;;5047845;28;20043;-74
2021/12/09 05:39:46;;;;;;;7.35;3.55;;;1.10;99.90;;;;;;5051096;28;20078;-74
2021/12/09 05:42:15;;;;;;;5.82;3.28;;;1.00;99.90;;;;;;5050513;28;20108;-74
2021/12/09 05:44:41;;;;;;;6.20;3.70;;;0.80;99.90;;;;;;5043077;28;20043;-74
2021/12/09 05:47:08;;;;;;;7.32;4.05;;;0.80;99.90;;;;;;5042649;28;20127;-74
2021/12/09 05:49:37;;;;;;;6.63;3.45;;;1.00;99.90;;;;;;5053430;28;20059;-74
2021/12/09 05:52:05;;;;;;;7.97;4.47;;;1.10;99.90;;;;;;5042920;28;20601;-74
2021/12/09 05:54:31;;;;;;;6.88;4.03;;;1.00;99.90;;;;;;5043265;28;20033;-74
2021/12/09 05:56:58;;;;;;;5.28;3.20;;;1.00;99.90;;;;;;5044161;28;20040;-74
2021/12/09 05:59:25;;;;;;;8.13;4.15;;;1.10;99.90;;;;;;5047020;28;20031;-74
2021/12/09 06:01:51;;;;;;;7.35;4.95;;;1.10;99.90;;;;;;5056324;28;20510;-74
2021/12/09 06:04:16;;;;;;;6.75;3.35;;;1.10;99.90;;;;;;5055784;28;20028;-74
2021/12/09 06:06:42;;;;;;;7.47;4.30;;;1.20;99.90;;;;;;5042557;28;20025;-74
2021/12/09 06:09:10;;;;;;;5.50;3.25;;;1.20;99.90;;;;;;5041653;28;20853;-74
2021/12/09 06:11:38;;;;;;;7.22;3.80;;;1.20;99.90;;;;;;5050816;28;20116;-74
2021/12/09 06:14:06;;;;;;;7.80;3.90;;;1.30;99.90;;;;;;5045451;28;20037;-75
2021/12/09 06:16:32;;;;;;;7.05;3.90;;;1.30;99.90;;;;;;5043669;28;20040;-74
2021/12/09 06:18:59;;;;;;;7.82;3.40;;;1.30;99.90;;;;;;5045109;28;20040;-74
2021/12/09 06:21:27;;;;;;;4.90;3.08;;;1.40;99.90;;;;;;5048269;28;20479;-74
2021/12/09 06:23:54;;;;;;;5.28;2.97;;;1.40;99.90;;;;;;5045763;28;20078;-74
2021/12/09 06:26:20;;;;;;;6.10;3.88;;;1.40;99.90;;;;;;5050548;28;20088;-74
2021/12/09 06:28:46;;;;;;;5.28;3.22;;;1.50;99.90;;;;;;5043096;28;20032;-74
2021/12/09 06:31:12;;;;;;;7.35;4.13;;;1.50;99.90;;;;;;5051109;28;20025;-74
2021/12/09 06:33:38;;;;;;;5.55;3.10;;;1.50;99.90;;;;;;5062159;28;20112;-74
2021/12/09 06:36:04;;;;;;;7.20;3.83;;;1.50;99.90;;;;;;5052997;28;20604;-74
2021/12/09 06:38:30;;;;;;;6.70;3.75;;;1.50;99.90;;;;;;5049498;28;20025;-74
2021/12/09 06:40:56;;;;;;;6.45;4.15;;;1.20;99.90;;;;;;5056920;28;20056;-74
2021/12/09 06:43:22;;;;;;;8.32;4.03;;;1.30;99.90;;;;;;5054556;28;20086;-74
2021/12/09 06:45:49;;;;;;;6.93;3.33;;;1.40;99.90;;;;;;5041827;28;20474;-74
2021/12/09 06:48:14;;;;;;;6.95;4.00;;;1.30;99.90;;;;;;5042078;28;20714;-74
2021/12/09 06:50:40;;;;;;;9.32;4.30;;;1.40;99.90;;;;;;5045851;28;20135;-74
2021/12/09 06:53:08;;;;;;;7.10;3.35;;;1.40;99.90;;;;;;5043669;28;20024;-74
2021/12/09 06:55:34;;;;;;;6.40;3.53;;;1.40;99.90;;;;;;5048038;28;20114;-74
2021/12/09 06:58:00;;;;;;;7.32;4.10;;;1.30;99.90;;;;;;5053721;28;20017;-74
2021/12/09 07:00:30;;;;;;;8.90;3.90;;;1.30;99.90;;;;;;5048724;28;20570;-74
2021/12/09 07:02:56;;;;;;;7.80;3.57;;;1.30;99.90;;;;;;5047239;28;20108;-74
2021/12/09 07:05:25;;;;;;;6.03;3.53;;;1.30;99.90;;;;;;5053531;28;20147;-74
2021/12/09 07:07:51;;;;;;;6.07;3.40;;;1.20;99.90;;;;;;5046740;28;20033;-74
2021/12/09 07:10:18;;;;;;;5.30;2.85;;;1.30;99.90;;;;;;5049637;28;20116;-74
2021/12/09 07:12:43;;;;;;;5.55;3.00;;;1.30;99.90;;;;;;5053480;28;20025;-73
2021/12/09 07:15:11;;;;;;;4.80;2.85;;;1.40;99.90;;;;;;5068362;28;20040;-74
2021/12/09 07:17:37;;;;;;;5.93;3.10;;;1.40;99.90;;;;;;5061695;28;20098;-75
2021/12/09 07:20:07;;;;;;;6.00;3.08;;;1.20;99.90;;;;;;5048340;28;20036;-74
2021/12/09 07:22:33;;;;;;;8.45;5.03;;;1.30;99.90;;;;;;5043535;28;20035;-74
2021/12/09 07:24:59;;;;;;;5.88;3.42;;;1.30;99.90;;;;;;5040964;28;20120;-73
2021/12/09 07:27:24;;;;;;;5.57;3.33;;;1.30;99.90;;;;;;5046282;28;20123;-74
2021/12/09 07:29:50;;;;;;;6.30;3.42;;;1.30;99.90;;;;;;5047655;28;20112;-73
2021/12/09 07:32:16;;;;;;;5.38;2.70;;;1.50;99.90;;;;;;5046517;28;20025;-74
2021/12/09 07:34:42;;;;;;;7.05;3.38;;;1.40;99.90;;;;;;5053923;28;20036;-74
2021/12/09 07:37:08;;;;;;;5.90;4.03;;;1.40;99.90;;;;;;5046998;28;20033;-74
2021/12/09 07:39:34;;;;;;;7.10;3.45;;;1.60;99.90;;;;;;5054973;28;20034;-73
2021/12/09 07:42:01;;;;;;;7.40;2.92;;;1.80;99.90;;;;;;5047074;28;20072;-73
2021/12/09 07:44:28;;;;;;;8.57;4.15;;;1.90;99.90;;;;;;5045156;28;20601;-73
2021/12/09 07:46:55;;;;;;;3.70;2.13;;;1.80;99.90;;;;;;5045217;28;20056;-74
2021/12/09 07:49:23;;;;;;;8.35;2.83;;;1.60;99.90;;;;;;5051140;28;20020;-74
2021/12/09 07:51:49;;;;;;;5.30;2.85;;;1.70;99.90;;;;;;5052172;28;20028;-73
2021/12/09 07:54:16;;;;;;;8.15;2.70;;;1.90;99.90;;;;;;5053115;28;20133;-74
2021/12/09 07:56:43;;;;;;;6.32;2.90;;;2.00;99.90;;;;;;5048195;28;20078;-73
2021/12/09 07:59:11;;;;;;;6.43;2.90;;;2.00;99.90;;;;;;5040887;28;20033;-73
2021/12/09 08:01:37;;;;;;;4.60;2.53;;;1.90;99.90;;;;;;5042468;28;20490;-74
2021/12/09 08:04:03;;;;;;;6.25;2.97;;;1.80;99.90;;;;;;5040655;28;20374;-73
2021/12/09 08:06:29;;;;;;;6.43;3.67;;;1.80;99.90;;;;;;5046679;28;20032;-73
2021/12/09 08:08:55;;;;;;;6.45;2.90;;;1.90;99.90;;;;;;5060609;28;20039;-73
2021/12/09 08:11:20;;;;;;;4.15;2.50;;;1.70;99.90;;;;;;5050196;28;20118;-73
2021/12/09 08:13:46;;;;;;;4.53;1.95;;;1.60;99.90;;;;;;5060639;28;20033;-73
2021/12/09 08:16:12;;;;;;;3.47;1.80;;;1.50;99.90;;;;;;5052604;28;20040;-74
2021/12/09 08:18:54;;;;;;;6.28;2.85;;;1.70;99.90;;;;;;5051301;28;20999;-74
2021/12/09 08:21:21;;;;;;;8.05;2.13;;;1.80;99.90;;;;;;5045638;28;20107;-73
2021/12/09 08:23:47;;;;;;;4.40;1.98;;;2.20;99.90;;;;;;5043685;28;20475;-74
2021/12/09 08:26:12;;;;;;;4.10;2.13;;;2.30;99.90;;;;;;5051422;28;20059;-74
2021/12/09 08:28:38;;;;;;;5.30;2.55;;;2.40;99.90;;;;;;5049848;28;20042;-75
2021/12/09 08:31:04;;;;;;;4.82;2.50;;;2.50;99.90;;;;;;5053666;28;20686;-73
2021/12/09 08:33:30;;;;;;;11.50;9.00;;;2.20;99.90;;;;;;5053251;28;20050;-73
2021/12/09 08:35:56;;;;;;;12.88;7.63;;;2.00;99.90;;;;;;5059416;28;20071;-73
2021/12/09 08:38:23;;;;;;;9.15;4.63;;;1.80;99.90;;;;;;5051241;28;20108;-73
2021/12/09 08:40:50;;;;;;;11.35;5.28;;;1.70;99.90;;;;;;5051349;28;20025;-74
2021/12/09 08:43:17;;;;;;;20.60;10.15;;;1.70;99.90;;;;;;5045530;28;20032;-73
2021/12/09 08:45:47;;;;;;;11.23;6.95;;;1.80;99.90;;;;;;5056552;28;20048;-73
2021/12/09 08:48:13;;;;;;;11.25;6.63;;;1.70;99.90;;;;;;5039437;28;20041;-74
2021/12/09 08:50:40;;;;;;;12.88;7.93;;;1.70;99.90;;;;;;5046279;28;20057;-74
2021/12/09 08:53:10;;;;;;;9.70;6.35;;;1.70;99.90;;;;;;5047031;28;20032;-74
2021/12/09 08:55:36;;;;;;;8.70;5.85;;;1.80;99.90;;;;;;5044402;28;20052;-74
2021/12/09 08:58:02;;;;;;;12.88;6.15;;;1.70;99.90;;;;;;5052216;28;20040;-74
2021/12/09 09:00:30;;;;;;;10.23;5.90;;;1.80;99.90;;;;;;5043927;28;20037;-74
2021/12/09 09:02:55;;;;;;;9.50;5.30;;;1.80;99.90;;;;;;5047107;28;20074;-74
2021/12/09 09:05:22;;;;;;;12.30;10.15;;;1.90;99.90;;;;;;5051053;28;20037;-74
2021/12/09 09:07:49;;;;;;;11.80;7.82;;;1.90;99.90;;;;;;5041106;28;20114;-74
2021/12/09 09:10:19;;;;;;;9.63;5.32;;;1.90;99.90;;;;;;5047942;28;20028;-74
2021/12/09 09:12:46;;;;;;;9.32;5.22;;;1.90;99.90;;;;;;5053272;28;20063;-74
2021/12/09 09:15:18;;;;;;;9.20;5.88;;;1.90;99.90;;;;;;5044259;28;20119;-73
2021/12/09 09:17:44;;;;;;;8.75;5.65;;;1.80;99.90;;;;;;5052250;28;20103;-73
2021/12/09 09:20:12;;;;;;;9.43;6.35;;;1.90;99.90;;;;;;5062534;28;20112;-74
2021/12/09 09:22:39;;;;;;;9.63;6.60;;;2.00;99.90;;;;;;5057771;28;20032;-74
2021/12/09 09:25:07;;;;;;;6.50;4.00;;;2.10;99.90;;;;;;5043803;28;20116;-73
2021/12/09 09:27:34;;;;;;;8.07;3.75;;;2.00;99.90;;;;;;5055162;28;20108;-74
2021/12/09 09:29:59;;;;;;;7.93;4.07;;;2.10;99.90;;;;;;5055141;28;20055;-73
2021/12/09 09:32:25;;;;;;;5.43;2.70;;;2.10;99.90;;;;;;5043261;28;20064;-74
2021/12/09 09:34:53;;;;;;;4.88;2.63;;;2.20;99.90;;;;;;5051704;28;20068;-73
2021/12/09 09:37:20;;;;;;;6.00;3.28;;;2.20;99.90;;;;;;5050282;28;20021;-74
2021/12/09 09:39:47;;;;;;;7.38;4.50;;;2.20;99.90;;;;;;5060601;28;20082;-74
2021/12/09 09:44:54;;;;;;;109.03;72.90;;;2.30;99.90;;;;;;5058454;28;20502;-73
2021/12/09 09:47:21;;;;;;;25.70;19.40;;;2.10;99.90;;;;;;5049753;28;20053;-74
2021/12/09 09:49:48;;;;;;;21.25;12.98;;;2.20;99.90;;;;;;5041266;28;21028;-74
2021/12/09 09:52:14;;;;;;;21.88;12.95;;;2.10;99.90;;;;;;5049009;28;20036;-74
2021/12/09 09:54:40;;;;;;;35.75;21.60;;;2.10;99.90;;;;;;5060226;28;20754;-74
2021/12/09 09:57:07;;;;;;;15.25;8.57;;;2.10;99.90;;;;;;5047845;28;20035;-74
2021/12/09 09:59:34;;;;;;;5.15;2.97;;;2.40;99.90;;;;;;5051766;28;20029;-74
2021/12/09 10:02:00;;;;;;;4.30;2.20;;;2.80;99.90;;;;;;5044155;28;20021;-74
2021/12/09 10:04:33;;;;;;;4.88;2.15;;;3.00;99.90;;;;;;5043941;28;20032;-74
2021/12/09 10:07:00;;;;;;;4.45;2.38;;;3.10;99.90;;;;;;5047497;28;20036;-75
2021/12/09 10:09:26;;;;;;;4.40;1.90;;;3.20;99.90;;;;;;5050685;28;20035;-75
2021/12/09 10:11:55;;;;;;;3.78;2.00;;;3.30;99.90;;;;;;5038566;28;20763;-75
2021/12/09 10:14:26;;;;;;;6.00;2.50;;;3.40;99.90;;;;;;5044978;28;20140;-75
2021/12/09 10:17:11;;;;;;;2.22;1.30;;;3.40;99.90;;;;;;5056433;28;20040;-77
2021/12/09 10:19:52;;;;;;;3.92;1.80;;;3.40;99.90;;;;;;5049701;28;20037;-77
2021/12/09 10:22:20;;;;;;;3.00;1.60;;;3.20;99.90;;;;;;5044754;28;20082;-76
2021/12/09 10:24:49;;;;;;;2.40;1.00;;;3.40;99.90;;;;;;5045008;28;20025;-76
2021/12/09 10:27:25;;;;;;;3.17;1.55;;;3.40;99.90;;;;;;5053144;28;20108;-76
2021/12/09 10:29:56;;;;;;;2.08;1.00;;;3.30;99.90;;;;;;5054837;28;20595;-76
2021/12/09 10:32:28;;;;;;;4.72;1.83;;;3.50;99.90;;;;;;5061469;28;20111;-76
2021/12/09 10:34:54;;;;;;;3.63;1.38;;;3.50;99.90;;;;;;5062901;28;20427;-76
2021/12/09 10:37:31;;;;;;;2.92;1.40;;;3.70;99.90;;;;;;5045670;28;20048;-76
2021/12/09 10:40:05;;;;;;;4.53;1.67;;;4.00;99.90;;;;;;5038977;28;20049;-76
2021/12/09 10:42:33;;;;;;;2.15;1.17;;;4.00;99.90;;;;;;5049996;28;20068;-76
2021/12/09 10:45:04;;;;;;;2.85;1.40;;;4.10;99.60;;;;;;5048012;28;20430;-76
2021/12/09 10:50:21;;;;;;;2.28;1.17;;;4.00;99.90;;;;;;5050108;28;20424;-76
2021/12/09 10:52:51;;;;;;;3.65;1.42;;;4.00;99.90;;;;;;5047734;28;20021;-76
2021/12/09 10:55:22;;;;;;;2.63;1.20;;;4.00;99.90;;;;;;5057073;28;20548;-76
2021/12/09 10:58:02;;;;;;;3.03;1.20;;;4.20;99.90;;;;;;5050841;28;20036;-76
2021/12/09 11:00:43;;;;;;;2.40;1.25;;;4.40;99.30;;;;;;5059651;28;20047;-76
2021/12/09 11:03:40;;;;;;;1.95;1.00;;;4.50;99.30;;;;;;5052756;28;20040;-76
2021/12/09 11:06:31;;;;;;;2.22;1.05;;;4.50;98.90;;;;;;5060665;28;20039;-76
2021/12/09 11:08:59;;;;;;;2.50;1.08;;;4.60;98.60;;;;;;5058935;28;20613;-76
2021/12/09 11:11:29;;;;;;;2.10;1.00;;;4.50;99.10;;;;;;5066493;28;20139;-76
2021/12/09 11:13:57;;;;;;;2.83;1.30;;;4.50;98.70;;;;;;5051077;28;20337;-76
2021/12/09 11:16:31;;;;;;;1.55;0.75;;;4.70;98.30;;;;;;5049602;28;20646;-78
2021/12/09 11:19:15;;;;;;;2.25;0.90;;;4.60;98.80;;;;;;5049853;28;20029;-78
2021/12/09 11:21:45;;;;;;;1.97;1.03;;;4.60;99.60;;;;;;5049756;28;20036;-77
2021/12/09 11:24:15;;;;;;;2.65;1.08;;;4.80;98.10;;;;;;5053717;28;20600;-75
2021/12/09 11:26:55;;;;;;;1.52;0.70;;;4.60;99.80;;;;;;5059774;28;20040;-76
2021/12/09 11:29:27;;;;;;;1.88;0.80;;;4.40;99.90;;;;;;5066260;28;20371;-76
2021/12/09 11:34:47;;;;;;;3.30;1.27;;;4.60;99.10;;;;;;5046612;28;20487;-76
2021/12/09 11:40:02;;;;;;;1.48;0.85;;;4.50;99.10;;;;;;5061055;28;20029;-75
2021/12/09 11:42:53;;;;;;;2.60;1.02;;;4.60;98.50;;;;;;5045961;28;20029;-77
2021/12/09 11:45:17;;;;;;;3.08;1.33;;;4.70;98.30;;;;;;5048933;28;20053;-75
2021/12/09 11:47:45;;;;;;;2.38;1.15;;;4.60;98.30;;;;;;5050734;28;20024;-76
2021/12/09 11:50:19;;;;;;;4.80;2.40;;;4.80;97.80;;;;;;5051450;28;20025;-74
2021/12/09 11:52:46;;;;;;;;;;;4.80;97.90;;;;;;5049194;28;20040;-74
2021/12/09 11:55:17;;;;;;;2.50;1.13;;;4.80;98.10;;;;;;5042289;28;19916;-75
2021/12/09 11:57:49;;;;;;;6.45;1.23;;;4.80;97.60;;;;;;5041800;28;20024;-76
2021/12/09 12:06:49;;;;;;;2.55;1.33;;;4.70;98.80;;;;;;5044737;28;20047;-76
2021/12/09 12:21:20;;;;;;;1.95;0.95;;;4.80;99.90;;;;;;5046228;28;20063;-77
2021/12/09 12:27:01;;;;;;;2.22;1.10;;;4.90;99.90;;;;;;5056894;28;20470;-75
2021/12/09 12:30:31;;;;;;;2.60;1.42;;;4.80;99.70;;;;;;5050620;28;20025;-76
2021/12/09 12:36:04;;;;;;;2.50;1.13;;;5.00;97.80;;;;;;4990664;28;20106;-76
2021/12/09 12:38:36;;;;;;;2.80;1.10;;;5.20;97.30;;;;;;5051811;28;20123;-77
2021/12/09 12:41:14;;;;;;;2.75;1.27;;;5.00;99.50;;;;;;5053054;28;20053;-77
2021/12/09 12:43:51;;;;;;;2.03;0.90;;;5.10;97.30;;;;;;5048170;28;20023;-77
2021/12/09 12:46:55;;;;;;;2.63;1.35;;;5.20;96.60;;;;;;5066416;28;20604;-76
2021/12/09 12:49:30;;;;;;;2.35;1.20;;;5.20;97.00;;;;;;5046136;28;20135;-75
2021/12/09 12:52:11;;;;;;;3.35;1.48;;;5.30;96.70;;;;;;5046844;28;20688;-74
2021/12/09 12:55:02;;;;;;;4.15;1.33;;;5.20;96.40;;;;;;5046438;28;20477;-74
2021/12/09 12:57:29;;;;;;;2.60;1.10;;;5.20;97.20;;;;;;5044242;28;20039;-73
2021/12/09 13:00:52;;;;;;;2.72;1.08;;;5.00;97.60;;;;;;5043311;28;20487;-74
2021/12/09 13:03:32;;;;;;;3.17;1.20;;;5.00;98.50;;;;;;4995279;28;20111;-73
2021/12/09 13:06:07;;;;;;;2.20;1.23;;;5.30;96.90;;;;;;4991647;28;20018;-73
2021/12/09 13:11:41;;;;;;;1.90;0.80;;;5.30;96.90;;;;;;5046179;28;20033;-73
2021/12/09 13:14:13;;;;;;;3.42;1.48;;;5.50;95.60;;;;;;5047380;28;20021;-74
2021/12/09 13:16:59;;;;;;;2.17;0.95;;;5.50;95.70;;;;;;5046179;28;20025;-75
2021/12/09 13:19:47;;;;;;;2.47;1.10;;;5.40;95.40;;;;;;5057391;28;20077;-75
2021/12/09 13:22:38;;;;;;;3.70;1.20;;;5.40;96.00;;;;;;5047192;28;20313;-75
2021/12/09 13:25:12;;;;;;;4.32;1.65;;;5.30;96.40;;;;;;5050402;28;20356;-76
2021/12/09 13:46:48;;;;;;;8.00;5.15;;;3.90;99.90;;;;;;5042912;28;20072;-76
2021/12/09 13:56:45;;;;;;;7.40;4.43;;;3.80;99.90;;;;;;5044141;28;20064;-75
2021/12/09 13:59:17;;;;;;;10.98;5.82;;;3.80;99.90;;;;;;5044155;28;20522;-75
2021/12/09 14:01:45;;;;;;;10.52;6.80;;;3.60;99.90;;;;;;5042796;28;20590;-75
2021/12/09 14:04:11;;;;;;;10.48;5.20;;;3.70;99.90;;;;;;5044926;28;20013;-75
2021/12/09 14:07:27;;;;;;;10.27;4.95;;;3.70;99.90;;;;;;5052260;28;20059;-76
2021/12/09 14:09:59;;;;;;;;;;;3.60;99.90;;;;;;5045021;28;20032;-76
2021/12/09 14:12:35;;;;;;;10.55;5.32;;;3.50;99.90;;;;;;5055583;28;20017;-75